Beauvallon, South Africa
Current Conditions -  °F | °C
As of 8:00 PM on Tuesday 21 Oct 2014 (Local Time) from FAUP Reporting Station
Clear Clear  
Wind Chill: 79°   Ceiling: Unl
Heat Index: 79°   Visibility: 6mi
Dew Point: 23°   Wind: 6mph
Humidity: 13%   Direction: 210°SSW
Pressure: 29.97"   Gusts: NA
Location:  28.5°S, 16.63°E
Report Text: FAUP 211800Z 21005KT CAVOK 26/M05 Q1015 NOSIG
Loading
Personal Weather Stations






























Interactive Weather Map
Tropical Storm Tracking
New forecast layout! Learn more

10-Day Weather Forecast

Advertisements
Track Severe Weather on mobile